Time;durP1;ratioP1;P1;durP2;ratioP2;P2;SDS_P1;SDS_P2;PMS_P1;PMS_P2;Temp;Humidity;BMP_temperature;BMP_pressure;BME280_temperature;BME280_humidity;BME280_pressure;Samples;Min_cycle;Max_cycle;Signal;HPM_P1;HPM_P2
2022/02/17 00:01:39;;;;;;;;;;;;;;;;;;2210881;59;1092;-70
2022/02/17 00:04:12;;;;;;;;;;;;;;;;;;2210696;59;1257;-70
2022/02/17 00:06:45;;;;;;;;;;;;;;;;;;2210024;59;1933;-70
2022/02/17 00:09:18;;;;;;;;;;;;;;;;;;2210632;59;1639;-70
2022/02/17 00:11:51;;;;;;;;;;;;;;;;;;2210102;63;1274;-70
2022/02/17 00:14:24;;;;;;;;;;;;;;;;;;2209618;59;1679;-70
2022/02/17 00:17:00;;;;;;;;;;;;;;;;;;2210789;59;1922;-69
2022/02/17 00:19:34;;;;;;;;;;;;;;;;;;2210596;60;1231;-70
2022/02/17 00:22:07;;;;;;;;;;;;;;;;;;2210982;59;1309;-70
2022/02/17 00:24:40;;;;;;;;;;;;;;;;;;2210801;67;1289;-70
2022/02/17 00:27:13;;;;;;;;;;;;;;;;;;2210884;67;1155;-70
2022/02/17 00:29:46;;;;;;;;;;;;;;;;;;2210157;59;1861;-70
2022/02/17 00:32:22;;;;;;;;;;;;;;;;;;2210832;59;1215;-70
2022/02/17 00:34:56;;;;;;;;;;;;;;;;;;2211221;67;1214;-70
2022/02/17 00:37:29;;;;;;;;;;;;;;;;;;2211041;67;1984;-70
2022/02/17 00:40:02;;;;;;;;;;;;;;;;;;2211447;67;1214;-70
2022/02/17 00:42:36;;;;;;;;;;;;;;;;;;2210446;59;1521;-70
2022/02/17 00:45:09;;;;;;;;;;;;;;;;;;2210987;59;1421;-70
2022/02/17 00:47:45;;;;;;;;;;;;;;;;;;2211077;59;1396;-70
2022/02/17 00:50:19;;;;;;;;;;;;;;;;;;2210648;59;1867;-70
2022/02/17 00:52:52;;;;;;;;;;;;;;;;;;2211249;59;1118;-70
2022/02/17 00:55:25;;;;;;;;;;;;;;;;;;2210925;59;1199;-70
2022/02/17 00:57:58;;;;;;;;;;;;;;;;;;2210546;59;1942;-70
2022/02/17 01:00:31;;;;;;;;;;;;;;;;;;2210622;59;2140;-70
2022/02/17 01:03:07;;;;;;;;;;;;;;;;;;2211115;67;1196;-70
2022/02/17 01:05:40;;;;;;;;;;;;;;;;;;2211097;67;1123;-70
2022/02/17 01:08:13;;;;;;;;;;;;;;;;;;2210682;59;2052;-70
2022/02/17 01:10:46;;;;;;;;;;;;;;;;;;2210651;60;1291;-69
2022/02/17 01:13:20;;;;;;;;;;;;;;;;;;2210987;67;1242;-69
2022/02/17 01:15:53;;;;;;;;;;;;;;;;;;2211071;67;2012;-70
2022/02/17 01:18:29;;;;;;;;;;;;;;;;;;2210764;59;1319;-70
2022/02/17 01:21:02;;;;;;;;;;;;;;;;;;2211191;59;1748;-70
2022/02/17 01:23:35;;;;;;;;;;;;;;;;;;2210709;59;1367;-70
2022/02/17 01:26:08;;;;;;;;;;;;;;;;;;2211192;59;1284;-70
2022/02/17 01:28:41;;;;;;;;;;;;;;;;;;2209695;59;1857;-70
2022/02/17 01:31:17;;;;;;;;;;;;;;;;;;2210897;67;1238;-70
2022/02/17 01:33:52;;;;;;;;;;;;;;;;;;2210860;67;1122;-70
2022/02/17 01:36:25;;;;;;;;;;;;;;;;;;2210913;67;1987;-70
2022/02/17 01:38:59;;;;;;;;;;;;;;;;;;2210793;67;1249;-70
2022/02/17 01:41:32;;;;;;;;;;;;;;;;;;2210861;59;1282;-70
2022/02/17 01:44:05;;;;;;;;;;;;;;;;;;2211134;67;1124;-70
2022/02/17 01:46:40;;;;;;;;;;;;;;;;;;2211102;59;1306;-70
2022/02/17 01:49:16;;;;;;;;;;;;;;;;;;2210315;59;1662;-70
2022/02/17 01:51:49;;;;;;;;;;;;;;;;;;2210895;67;1039;-70
2022/02/17 01:54:22;;;;;;;;;;;;;;;;;;2210867;67;1270;-70
2022/02/17 01:56:57;;;;;;;;;;;;;;;;;;2211099;59;1991;-70
2022/02/17 01:59:30;;;;;;;;;;;;;;;;;;2210919;67;1350;-70
2022/02/17 02:02:04;;;;;;;;;;;;;;;;;;2211080;59;1096;-70
2022/02/17 02:04:40;;;;;;;;;;;;;;;;;;2211011;67;1164;-69
2022/02/17 02:07:14;;;;;;;;;;;;;;;;;;2211109;67;1085;-70
2022/02/17 02:09:47;;;;;;;;;;;;;;;;;;2210486;59;1722;-70
2022/02/17 02:12:20;;;;;;;;;;;;;;;;;;2210535;67;1222;-70
2022/02/17 02:14:55;;;;;;;;;;;;;;;;;;2210583;59;1325;-70
2022/02/17 02:17:29;;;;;;;;;;;;;;;;;;2210346;59;1937;-70
2022/02/17 02:20:07;;;;;;;;;;;;;;;;;;2210253;59;1184;-70
2022/02/17 02:22:43;;;;;;;;;;;;;;;;;;2210000;59;1734;-70
2022/02/17 02:25:16;;;;;;;;;;;;;;;;;;2210177;67;1204;-70
2022/02/17 02:27:52;;;;;;;;;;;;;;;;;;2210638;67;1115;-70
2022/02/17 02:30:26;;;;;;;;;;;;;;;;;;2210348;59;1598;-70
2022/02/17 02:32:59;;;;;;;;;;;;;;;;;;2210904;67;1244;-70
2022/02/17 02:35:32;;;;;;;;;;;;;;;;;;2210712;59;1227;-70
2022/02/17 02:38:08;;;;;;;;;;;;;;;;;;2211046;59;1988;-70
2022/02/17 02:40:41;;;;;;;;;;;;;;;;;;2210851;59;1175;-70
2022/02/17 02:43:14;;;;;;;;;;;;;;;;;;2209329;59;2697;-70
2022/02/17 02:45:47;;;;;;;;;;;;;;;;;;2210576;59;1317;-70
2022/02/17 02:48:20;;;;;;;;;;;;;;;;;;2210141;59;1551;-71
2022/02/17 02:50:54;;;;;;;;;;;;;;;;;;2210662;67;1098;-70
2022/02/17 02:53:30;;;;;;;;;;;;;;;;;;2210648;59;1327;-69
2022/02/17 02:56:03;;;;;;;;;;;;;;;;;;2211094;59;1160;-70
2022/02/17 02:58:36;;;;;;;;;;;;;;;;;;2210538;67;1938;-69
2022/02/17 03:01:10;;;;;;;;;;;;;;;;;;2210686;67;1133;-70
2022/02/17 03:03:48;;;;;;;;;;;;;;;;;;2210711;67;1112;-70
2022/02/17 03:06:21;;;;;;;;;;;;;;;;;;2211083;67;1265;-70
2022/02/17 03:08:57;;;;;;;;;;;;;;;;;;2210253;59;1670;-70
2022/02/17 03:11:32;;;;;;;;;;;;;;;;;;2210551;67;1251;-70
2022/02/17 03:14:05;;;;;;;;;;;;;;;;;;2210403;59;1814;-70
2022/02/17 03:16:39;;;;;;;;;;;;;;;;;;2211353;59;2100;-70
2022/02/17 03:19:13;;;;;;;;;;;;;;;;;;2211530;67;1279;-70
2022/02/17 03:21:46;;;;;;;;;;;;;;;;;;2210834;59;1523;-70
2022/02/17 03:24:22;;;;;;;;;;;;;;;;;;2211316;67;1171;-70
2022/02/17 03:26:55;;;;;;;;;;;;;;;;;;2211683;67;1136;-70
2022/02/17 03:29:28;;;;;;;;;;;;;;;;;;2210782;59;1868;-70
2022/02/17 03:32:02;;;;;;;;;;;;;;;;;;2211330;67;1077;-70
2022/02/17 03:34:35;;;;;;;;;;;;;;;;;;2211260;67;1212;-70
2022/02/17 03:37:09;;;;;;;;;;;;;;;;;;2211303;67;1973;-70
2022/02/17 03:39:45;;;;;;;;;;;;;;;;;;2211478;67;1297;-70
2022/02/17 03:42:18;;;;;;;;;;;;;;;;;;2211798;67;1171;-70
2022/02/17 03:44:51;;;;;;;;;;;;;;;;;;2210485;59;1454;-70
2022/02/17 03:47:24;;;;;;;;;;;;;;;;;;2210793;59;1277;-70
2022/02/17 03:49:57;;;;;;;;;;;;;;;;;;2211191;59;1884;-70
2022/02/17 03:52:30;;;;;;;;;;;;;;;;;;2211250;59;1108;-70
2022/02/17 03:55:06;;;;;;;;;;;;;;;;;;2211328;67;1145;-71
2022/02/17 03:57:40;;;;;;;;;;;;;;;;;;2210995;67;1932;-70
2022/02/17 04:00:13;;;;;;;;;;;;;;;;;;2211223;59;1210;-70
2022/02/17 04:02:47;;;;;;;;;;;;;;;;;;2211355;67;1211;-70
2022/02/17 04:05:20;;;;;;;;;;;;;;;;;;2210947;67;1144;-70
2022/02/17 04:07:53;;;;;;;;;;;;;;;;;;2211278;59;1243;-70
2022/02/17 04:10:29;;;;;;;;;;;;;;;;;;2210669;59;2059;-70
2022/02/17 04:13:02;;;;;;;;;;;;;;;;;;2210552;59;1645;-70
2022/02/17 04:15:35;;;;;;;;;;;;;;;;;;2210722;59;1211;-70
2022/02/17 04:18:08;;;;;;;;;;;;;;;;;;2211317;59;1999;-71
2022/02/17 04:20:41;;;;;;;;;;;;;;;;;;2211233;59;1228;-70
2022/02/17 04:23:15;;;;;;;;;;;;;;;;;;2210988;67;1459;-70
2022/02/17 04:25:50;;;;;;;;;;;;;;;;;;2210455;59;1133;-70
2022/02/17 04:28:24;;;;;;;;;;;;;;;;;;2212923;53;3554;-70
2022/02/17 04:30:58;;;;;;;;;;;;;;;;;;2202015;59;2069;-71
2022/02/17 04:33:31;;;;;;;;;;;;;;;;;;2202826;59;1228;-70
2022/02/17 04:36:05;;;;;;;;;;;;;;;;;;2204075;59;1252;-70
2022/02/17 04:38:38;;;;;;;;;;;;;;;;;;2202903;59;1937;-70
2022/02/17 04:44:03;;;;;;;;;;;;;;;;;;2203906;67;1106;-71
2022/02/17 04:46:36;;;;;;;;;;;;;;;;;;2203794;59;1328;-70
2022/02/17 04:49:09;;;;;;;;;;;;;;;;;;2202742;59;1592;-70
2022/02/17 04:51:43;;;;;;;;;;;;;;;;;;2203816;67;1130;-70
2022/02/17 04:54:16;;;;;;;;;;;;;;;;;;2203520;59;2821;-70
2022/02/17 04:56:52;;;;;;;;;;;;;;;;;;2204160;59;1269;-70
2022/02/17 04:59:25;;;;;;;;;;;;;;;;;;2203739;59;1279;-70
2022/02/17 05:01:58;;;;;;;;;;;;;;;;;;2203930;59;1144;-71
2022/02/17 05:04:31;;;;;;;;;;;;;;;;;;2203945;67;1212;-70
2022/02/17 05:07:05;;;;;;;;;;;;;;;;;;2204166;67;1114;-70
2022/02/17 05:09:38;;;;;;;;;;;;;;;;;;2203504;59;1832;-70
2022/02/17 05:12:14;;;;;;;;;;;;;;;;;;2203676;59;1242;-70
2022/02/17 05:14:47;;;;;;;;;;;;;;;;;;2203254;59;1559;-70
2022/02/17 05:17:20;;;;;;;;;;;;;;;;;;2203636;59;1979;-70
2022/02/17 05:19:54;;;;;;;;;;;;;;;;;;2203794;59;1266;-70
2022/02/17 05:22:27;;;;;;;;;;;;;;;;;;2203289;59;1407;-70
2022/02/17 05:25:00;;;;;;;;;;;;;;;;;;2203627;59;1140;-70
2022/02/17 05:27:36;;;;;;;;;;;;;;;;;;2203641;59;1259;-70
2022/02/17 05:30:10;;;;;;;;;;;;;;;;;;2202905;59;1899;-70
2022/02/17 05:32:44;;;;;;;;;;;;;;;;;;2203324;67;1283;-70
2022/02/17 05:35:17;;;;;;;;;;;;;;;;;;2203708;67;1205;-70
2022/02/17 05:37:50;;;;;;;;;;;;;;;;;;2203554;67;1973;-70
2022/02/17 05:40:23;;;;;;;;;;;;;;;;;;2203588;67;1170;-70
2022/02/17 05:43:09;;;;;;;;;;;;;;;;;;2201288;67;1616;-70
2022/02/17 05:45:45;;;;;;;;;;;;;;;;;;2202984;59;1397;-70
2022/02/17 05:48:22;;;;;;;;;;;;;;;;;;2203236;59;1783;-70
2022/02/17 05:50:55;;;;;;;;;;;;;;;;;;2203471;59;1092;-71
2022/02/17 05:53:29;;;;;;;;;;;;;;;;;;2203405;59;1145;-70
2022/02/17 05:56:02;;;;;;;;;;;;;;;;;;2203267;59;1130;-70
2022/02/17 05:58:38;;;;;;;;;;;;;;;;;;2203400;67;1933;-71
2022/02/17 06:01:11;;;;;;;;;;;;;;;;;;2203749;67;1091;-70
2022/02/17 06:03:45;;;;;;;;;;;;;;;;;;2200135;67;1249;-71
2022/02/17 06:06:18;;;;;;;;;;;;;;;;;;2203784;67;1299;-70
2022/02/17 06:08:51;;;;;;;;;;;;;;;;;;2203329;59;1751;-70
2022/02/17 06:11:24;;;;;;;;;;;;;;;;;;2203135;67;1367;-71
2022/02/17 06:14:05;;;;;;;;;;;;;;;;;;2203448;67;1319;-70
2022/02/17 06:16:39;;;;;;;;;;;;;;;;;;2202621;59;1401;-70
2022/02/17 06:19:12;;;;;;;;;;;;;;;;;;2203438;67;1921;-70
2022/02/17 06:21:45;;;;;;;;;;;;;;;;;;2203594;59;1504;-70
2022/02/17 06:24:18;;;;;;;;;;;;;;;;;;2203185;59;1230;-70
2022/02/17 06:26:52;;;;;;;;;;;;;;;;;;2203858;67;1205;-70
2022/02/17 06:29:28;;;;;;;;;;;;;;;;;;2202250;59;1882;-70
2022/02/17 06:32:01;;;;;;;;;;;;;;;;;;2202885;59;1767;-70
2022/02/17 06:34:35;;;;;;;;;;;;;;;;;;2203171;59;1272;-70
2022/02/17 06:37:08;;;;;;;;;;;;;;;;;;2199805;60;1605;-70
2022/02/17 06:39:42;;;;;;;;;;;;;;;;;;2203488;67;1920;-70
2022/02/17 06:42:15;;;;;;;;;;;;;;;;;;2202580;59;1653;-70
2022/02/17 06:44:51;;;;;;;;;;;;;;;;;;2203043;59;1172;-70
2022/02/17 06:47:24;;;;;;;;;;;;;;;;;;2202789;59;1663;-70
2022/02/17 06:49:57;;;;;;;;;;;;;;;;;;2203685;59;1641;-70
2022/02/17 06:52:31;;;;;;;;;;;;;;;;;;2203895;67;1180;-71
2022/02/17 06:55:04;;;;;;;;;;;;;;;;;;2204002;67;1153;-70
2022/02/17 06:57:37;;;;;;;;;;;;;;;;;;2203864;67;1991;-70
2022/02/17 07:00:14;;;;;;;;;;;;;;;;;;2203837;59;1664;-70
2022/02/17 07:02:51;;;;;;;;;;;;;;;;;;2203924;59;1995;-70
2022/02/17 07:05:26;;;;;;;;;;;;;;;;;;2204026;67;1270;-70
2022/02/17 07:07:59;;;;;;;;;;;;;;;;;;2204146;67;1142;-70
2022/02/17 07:13:22;;;;;;;;;;;;;;;;;;2203571;59;2059;-71
2022/02/17 07:15:58;;;;;;;;;;;;;;;;;;2204001;67;1195;-70
2022/02/17 07:18:31;;;;;;;;;;;;;;;;;;2203890;67;1938;-71
2022/02/17 07:21:05;;;;;;;;;;;;;;;;;;2203419;59;1492;-70
2022/02/17 07:23:38;;;;;;;;;;;;;;;;;;2203880;59;2232;-70
2022/02/17 07:26:12;;;;;;;;;;;;;;;;;;2204000;59;1141;-70
2022/02/17 07:28:45;;;;;;;;;;;;;;;;;;2203957;59;2033;-70
2022/02/17 07:31:21;;;;;;;;;;;;;;;;;;2203070;59;1861;-70
2022/02/17 07:33:54;;;;;;;;;;;;;;;;;;2203760;67;1252;-70
2022/02/17 07:36:27;;;;;;;;;;;;;;;;;;2203905;67;1306;-70
2022/02/17 07:39:01;;;;;;;;;;;;;;;;;;2199015;59;2247;-71
2022/02/17 07:41:36;;;;;;;;;;;;;;;;;;2203667;59;1216;-69
2022/02/17 07:44:10;;;;;;;;;;;;;;;;;;2203540;59;1505;-70
2022/02/17 07:46:47;;;;;;;;;;;;;;;;;;2203077;59;1520;-70
2022/02/17 07:49:20;;;;;;;;;;;;;;;;;;2202687;59;1825;-70
2022/02/17 07:51:54;;;;;;;;;;;;;;;;;;2203354;59;1718;-70
2022/02/17 07:54:27;;;;;;;;;;;;;;;;;;2203348;59;1790;-70
2022/02/17 07:57:03;;;;;;;;;;;;;;;;;;2201165;59;1570;-71
2022/02/17 07:59:36;;;;;;;;;;;;;;;;;;2202348;59;1989;-70
2022/02/17 08:02:12;;;;;;;;;;;;;;;;;;2202915;67;1089;-71
2022/02/17 08:04:46;;;;;;;;;;;;;;;;;;2203182;59;1134;-70
2022/02/17 08:07:19;;;;;;;;;;;;;;;;;;2201784;59;2291;-70
2022/02/17 08:09:53;;;;;;;;;;;;;;;;;;2202763;59;1641;-70
2022/02/17 08:12:26;;;;;;;;;;;;;;;;;;2202758;59;1152;-70
2022/02/17 08:15:01;;;;;;;;;;;;;;;;;;2203080;59;1746;-71
2022/02/17 08:17:37;;;;;;;;;;;;;;;;;;2203594;59;1368;-70
2022/02/17 08:20:11;;;;;;;;;;;;;;;;;;2203777;59;1929;-71
2022/02/17 08:22:49;;;;;;;;;;;;;;;;;;2200329;59;1558;-70
2022/02/17 08:25:23;;;;;;;;;;;;;;;;;;2199013;67;1135;-71
2022/02/17 08:27:57;;;;;;;;;;;;;;;;;;2203940;67;1231;-71
2022/02/17 08:30:30;;;;;;;;;;;;;;;;;;2203157;59;1740;-70
2022/02/17 08:33:07;;;;;;;;;;;;;;;;;;2199036;59;2395;-70
2022/02/17 08:35:40;;;;;;;;;;;;;;;;;;2203003;59;2353;-70
2022/02/17 08:38:14;;;;;;;;;;;;;;;;;;2196162;59;2793;-70
2022/02/17 08:40:47;;;;;;;;;;;;;;;;;;2203740;59;1271;-70
2022/02/17 08:43:20;;;;;;;;;;;;;;;;;;2189175;59;1919;-70
2022/02/17 08:45:53;;;;;;;;;;;;;;;;;;2202422;59;1281;-70
2022/02/17 08:48:30;;;;;;;;;;;;;;;;;;2201511;59;2536;-70
2022/02/17 08:51:04;;;;;;;;;;;;;;;;;;2202032;59;2347;-70
2022/02/17 08:53:37;;;;;;;;;;;;;;;;;;2201849;59;1869;-70
2022/02/17 08:56:10;;;;;;;;;;;;;;;;;;2203671;59;1330;-70
2022/02/17 08:58:44;;;;;;;;;;;;;;;;;;2201143;67;1956;-70
2022/02/17 09:01:17;;;;;;;;;;;;;;;;;;2203475;60;1236;-70
2022/02/17 09:03:53;;;;;;;;;;;;;;;;;;2202404;59;2754;-70
2022/02/17 09:06:26;;;;;;;;;;;;;;;;;;2203642;59;1265;-70
2022/02/17 09:08:59;;;;;;;;;;;;;;;;;;2201902;59;2478;-70
2022/02/17 09:11:33;;;;;;;;;;;;;;;;;;2202561;59;1879;-70
2022/02/17 09:14:06;;;;;;;;;;;;;;;;;;2202277;59;1904;-70
2022/02/17 09:16:40;;;;;;;;;;;;;;;;;;2201305;59;1500;-70
2022/02/17 09:19:16;;;;;;;;;;;;;;;;;;2202602;59;2640;-70
2022/02/17 09:21:49;;;;;;;;;;;;;;;;;;2202881;59;1719;-70
2022/02/17 09:24:23;;;;;;;;;;;;;;;;;;2202621;59;2629;-70
2022/02/17 09:26:56;;;;;;;;;;;;;;;;;;2203460;59;1193;-70
2022/02/17 09:29:30;;;;;;;;;;;;;;;;;;2201888;59;1738;-70
2022/02/17 09:32:03;;;;;;;;;;;;;;;;;;2202656;67;1938;-70
2022/02/17 09:34:40;;;;;;;;;;;;;;;;;;2201046;59;2556;-70
2022/02/17 09:37:17;;;;;;;;;;;;;;;;;;2202458;67;1856;-70
2022/02/17 09:39:54;;;;;;;;;;;;;;;;;;2202643;63;1988;-70
2022/02/17 09:42:32;;;;;;;;;;;;;;;;;;2202637;59;1923;-70
2022/02/17 09:45:05;;;;;;;;;;;;;;;;;;2202469;59;1769;-70
2022/02/17 09:47:39;;;;;;;;;;;;;;;;;;2203510;59;1353;-70
2022/02/17 09:50:19;;;;;;;;;;;;;;;;;;2200710;59;2861;-70
2022/02/17 09:52:53;;;;;;;;;;;;;;;;;;2202406;59;2564;-70
2022/02/17 09:55:29;;;;;;;;;;;;;;;;;;2202135;59;1804;-69
2022/02/17 09:58:02;;;;;;;;;;;;;;;;;;2203236;67;1303;-70
2022/02/17 10:00:36;;;;;;;;;;;;;;;;;;2202443;59;1988;-70
2022/02/17 10:03:22;;;;;;;;;;;;;;;;;;2201366;59;2254;-70
2022/02/17 10:06:08;;;;;;;;;;;;;;;;;;2202793;59;2861;-70
2022/02/17 10:08:41;;;;;;;;;;;;;;;;;;2202670;59;1891;-70
2022/02/17 10:11:29;;;;;;;;;;;;;;;;;;2203349;59;1443;-69
2022/02/17 10:14:03;;;;;;;;;;;;;;;;;;2201154;59;1843;-70
2022/02/17 10:16:53;;;;;;;;;;;;;;;;;;2203178;59;1528;-70
2022/02/17 10:19:27;;;;;;;;;;;;;;;;;;2202146;59;1936;-70
2022/02/17 10:22:07;;;;;;;;;;;;;;;;;;2202460;59;1460;-70
2022/02/17 10:24:42;;;;;;;;;;;;;;;;;;2202018;60;1096;-70
2022/02/17 10:27:16;;;;;;;;;;;;;;;;;;2202382;59;1533;-70
2022/02/17 10:30:02;;;;;;;;;;;;;;;;;;2206551;53;3669;-70
2022/02/17 10:32:35;;;;;;;;;;;;;;;;;;2211756;59;1223;-70
2022/02/17 10:35:09;;;;;;;;;;;;;;;;;;2210950;59;2527;-69
2022/02/17 10:37:49;;;;;;;;;;;;;;;;;;2211180;59;2647;-70
2022/02/17 10:40:23;;;;;;;;;;;;;;;;;;2210957;59;1943;-69
2022/02/17 10:43:00;;;;;;;;;;;;;;;;;;2209372;67;1084;-70
2022/02/17 10:45:33;;;;;;;;;;;;;;;;;;2209775;59;1207;-69
2022/02/17 10:48:13;;;;;;;;;;;;;;;;;;2210494;59;1449;-69
2022/02/17 10:50:49;;;;;;;;;;;;;;;;;;2209165;59;1754;-69
2022/02/17 10:53:26;;;;;;;;;;;;;;;;;;2208064;59;1568;-69
2022/02/17 10:56:00;;;;;;;;;;;;;;;;;;2210495;67;1138;-69
2022/02/17 10:58:36;;;;;;;;;;;;;;;;;;2209663;67;1119;-69
2022/02/17 11:01:10;;;;;;;;;;;;;;;;;;2209876;59;1984;-69
2022/02/17 11:03:44;;;;;;;;;;;;;;;;;;2210336;59;1181;-69
2022/02/17 11:06:17;;;;;;;;;;;;;;;;;;2210574;67;1141;-69
2022/02/17 11:08:54;;;;;;;;;;;;;;;;;;2209998;59;1144;-69
2022/02/17 11:11:27;;;;;;;;;;;;;;;;;;2210327;59;1511;-70
2022/02/17 11:14:00;;;;;;;;;;;;;;;;;;2210647;59;1283;-69
2022/02/17 11:16:33;;;;;;;;;;;;;;;;;;2210572;59;1376;-69
2022/02/17 11:19:07;;;;;;;;;;;;;;;;;;2210055;67;1190;-69
2022/02/17 11:21:43;;;;;;;;;;;;;;;;;;2210346;59;1362;-69
2022/02/17 11:24:19;;;;;;;;;;;;;;;;;;2210336;67;1118;-69
2022/02/17 11:27:02;;;;;;;;;;;;;;;;;;2209952;59;1120;-69
2022/02/17 11:29:36;;;;;;;;;;;;;;;;;;2210013;59;1768;-69
2022/02/17 11:32:13;;;;;;;;;;;;;;;;;;2210254;59;1137;-69
2022/02/17 11:34:48;;;;;;;;;;;;;;;;;;2210268;67;2562;-69
2022/02/17 11:37:40;;;;;;;;;;;;;;;;;;2209938;59;2186;-69
2022/02/17 11:40:19;;;;;;;;;;;;;;;;;;2209924;67;1929;-69
2022/02/17 11:43:04;;;;;;;;;;;;;;;;;;2210969;67;1188;-69
2022/02/17 11:45:45;;;;;;;;;;;;;;;;;;2210341;67;1094;-69
2022/02/17 11:48:33;;;;;;;;;;;;;;;;;;2210489;59;1475;-69
2022/02/17 11:51:14;;;;;;;;;;;;;;;;;;2209819;59;1533;-69
2022/02/17 11:53:48;;;;;;;;;;;;;;;;;;2210549;67;1219;-69
2022/02/17 11:56:41;;;;;;;;;;;;;;;;;;2211503;67;1067;-69
2022/02/17 11:59:24;;;;;;;;;;;;;;;;;;2210430;59;1480;-69
2022/02/17 12:01:58;;;;;;;;;;;;;;;;;;2210622;59;1807;-69
2022/02/17 12:04:32;;;;;;;;;;;;;;;;;;2210076;59;1474;-69
2022/02/17 12:07:06;;;;;;;;;;;;;;;;;;2210728;59;1998;-70
2022/02/17 12:09:41;;;;;;;;;;;;;;;;;;2210536;59;1563;-70
2022/02/17 12:12:25;;;;;;;;;;;;;;;;;;2210860;67;1086;-70
2022/02/17 12:15:02;;;;;;;;;;;;;;;;;;2211124;59;1288;-69
2022/02/17 12:17:35;;;;;;;;;;;;;;;;;;2210714;59;1210;-69
2022/02/17 12:20:10;;;;;;;;;;;;;;;;;;2210357;59;1945;-70
2022/02/17 12:22:50;;;;;;;;;;;;;;;;;;2211194;59;1396;-70
2022/02/17 12:25:24;;;;;;;;;;;;;;;;;;2210707;59;1057;-70
2022/02/17 12:27:58;;;;;;;;;;;;;;;;;;2211034;59;1519;-70
2022/02/17 12:30:35;;;;;;;;;;;;;;;;;;2210183;59;1800;-70
2022/02/17 12:33:13;;;;;;;;;;;;;;;;;;2210551;67;1137;-70
2022/02/17 12:35:50;;;;;;;;;;;;;;;;;;2210417;67;2610;-70
2022/02/17 12:38:24;;;;;;;;;;;;;;;;;;2209213;59;2612;-70
2022/02/17 12:40:58;;;;;;;;;;;;;;;;;;2209923;59;1981;-70
2022/02/17 12:43:33;;;;;;;;;;;;;;;;;;2210213;59;1649;-70
2022/02/17 12:46:12;;;;;;;;;;;;;;;;;;2210154;59;1699;-70
2022/02/17 12:48:45;;;;;;;;;;;;;;;;;;2213203;59;2072;-69
2022/02/17 12:51:28;;;;;;;;;;;;;;;;;;2210299;59;1646;-69
2022/02/17 12:54:02;;;;;;;;;;;;;;;;;;2210653;59;1272;-69
2022/02/17 12:56:36;;;;;;;;;;;;;;;;;;2210225;59;2552;-69
2022/02/17 12:59:12;;;;;;;;;;;;;;;;;;2210720;59;1246;-69
2022/02/17 13:01:50;;;;;;;;;;;;;;;;;;2211090;59;1929;-69
2022/02/17 13:04:23;;;;;;;;;;;;;;;;;;2210842;59;1173;-69
2022/02/17 13:07:01;;;;;;;;;;;;;;;;;;2210871;59;1903;-69
2022/02/17 13:09:34;;;;;;;;;;;;;;;;;;2210452;59;1523;-69
2022/02/17 13:12:12;;;;;;;;;;;;;;;;;;2210706;67;1093;-69
2022/02/17 13:14:47;;;;;;;;;;;;;;;;;;2209535;59;1158;-69
2022/02/17 13:17:26;;;;;;;;;;;;;;;;;;2211202;59;1320;-69
2022/02/17 13:19:59;;;;;;;;;;;;;;;;;;2209668;59;1925;-68
2022/02/17 13:22:40;;;;;;;;;;;;;;;;;;2210582;59;1326;-69
2022/02/17 13:25:13;;;;;;;;;;;;;;;;;;2209670;67;1159;-69
2022/02/17 13:27:51;;;;;;;;;;;;;;;;;;2210940;67;1322;-69
2022/02/17 13:30:34;;;;;;;;;;;;;;;;;;2210231;59;1485;-69
2022/02/17 13:33:11;;;;;;;;;;;;;;;;;;2206699;59;1716;-69
2022/02/17 13:35:48;;;;;;;;;;;;;;;;;;2206569;59;1819;-69
2022/02/17 13:38:27;;;;;;;;;;;;;;;;;;2207946;59;2476;-69
2022/02/17 13:41:03;;;;;;;;;;;;;;;;;;2209223;59;1940;-70
2022/02/17 13:43:46;;;;;;;;;;;;;;;;;;2209279;59;1657;-69
2022/02/17 13:46:19;;;;;;;;;;;;;;;;;;2209918;59;1445;-69
2022/02/17 13:48:55;;;;;;;;;;;;;;;;;;2210057;59;1444;-68
2022/02/17 13:51:28;;;;;;;;;;;;;;;;;;2210316;59;1575;-69
2022/02/17 13:54:02;;;;;;;;;;;;;;;;;;2209917;67;1226;-69
2022/02/17 13:56:35;;;;;;;;;;;;;;;;;;2210800;67;1174;-69
2022/02/17 13:59:08;;;;;;;;;;;;;;;;;;2209907;67;1307;-69
2022/02/17 14:01:42;;;;;;;;;;;;;;;;;;2211244;67;1935;-69
2022/02/17 14:04:29;;;;;;;;;;;;;;;;;;2209879;67;1188;-69
2022/02/17 14:07:05;;;;;;;;;;;;;;;;;;2210337;67;1092;-69
2022/02/17 14:09:39;;;;;;;;;;;;;;;;;;2210253;59;1908;-69
2022/02/17 14:12:12;;;;;;;;;;;;;;;;;;2209873;67;1325;-69
2022/02/17 14:14:45;;;;;;;;;;;;;;;;;;2211046;59;1714;-69
2022/02/17 14:17:18;;;;;;;;;;;;;;;;;;2210066;59;1372;-69
2022/02/17 14:19:54;;;;;;;;;;;;;;;;;;2210896;59;1319;-69
2022/02/17 14:22:27;;;;;;;;;;;;;;;;;;2209712;59;1992;-70
2022/02/17 14:25:01;;;;;;;;;;;;;;;;;;2209132;67;1649;-70
2022/02/17 14:27:34;;;;;;;;;;;;;;;;;;2210764;67;1148;-70
2022/02/17 14:30:07;;;;;;;;;;;;;;;;;;2210486;59;1456;-69
2022/02/17 14:32:41;;;;;;;;;;;;;;;;;;2210344;67;1240;-70
2022/02/17 14:35:16;;;;;;;;;;;;;;;;;;2209713;67;1188;-69
2022/02/17 14:37:51;;;;;;;;;;;;;;;;;;2210204;59;2674;-69
2022/02/17 14:40:26;;;;;;;;;;;;;;;;;;2209625;59;2952;-69
2022/02/17 14:43:00;;;;;;;;;;;;;;;;;;2210182;67;1183;-69
2022/02/17 14:45:33;;;;;;;;;;;;;;;;;;2210593;59;1076;-69
2022/02/17 14:48:08;;;;;;;;;;;;;;;;;;2210558;59;1474;-70
2022/02/17 14:50:44;;;;;;;;;;;;;;;;;;2210475;59;1686;-70
2022/02/17 14:53:17;;;;;;;;;;;;;;;;;;2209205;59;1757;-69
2022/02/17 14:55:54;;;;;;;;;;;;;;;;;;2210411;67;1278;-69
2022/02/17 14:58:27;;;;;;;;;;;;;;;;;;2210687;67;1157;-68
2022/02/17 15:01:00;;;;;;;;;;;;;;;;;;2210910;67;1970;-69
2022/02/17 15:03:33;;;;;;;;;;;;;;;;;;2210672;67;1049;-69
2022/02/17 15:06:09;;;;;;;;;;;;;;;;;;2197486;59;2317;-68
2022/02/17 15:08:43;;;;;;;;;;;;;;;;;;2206975;67;2650;-68
2022/02/17 15:11:16;;;;;;;;;;;;;;;;;;2208751;59;1907;-69
2022/02/17 15:13:49;;;;;;;;;;;;;;;;;;2208479;59;1273;-68
2022/02/17 15:16:23;;;;;;;;;;;;;;;;;;2209743;59;1211;-69
2022/02/17 15:18:56;;;;;;;;;;;;;;;;;;2210111;59;1797;-69
2022/02/17 15:21:32;;;;;;;;;;;;;;;;;;2207757;59;1937;-69
2022/02/17 15:24:05;;;;;;;;;;;;;;;;;;2208493;59;1147;-69
2022/02/17 15:26:38;;;;;;;;;;;;;;;;;;2210354;67;1084;-69
2022/02/17 15:29:11;;;;;;;;;;;;;;;;;;2210866;59;1714;-70
2022/02/17 15:31:44;;;;;;;;;;;;;;;;;;2210162;67;1122;-69
2022/02/17 15:34:17;;;;;;;;;;;;;;;;;;2209755;59;2318;-69
2022/02/17 15:36:53;;;;;;;;;;;;;;;;;;2210585;59;1160;-69
2022/02/17 15:39:29;;;;;;;;;;;;;;;;;;2209923;59;2534;-69
2022/02/17 15:42:02;;;;;;;;;;;;;;;;;;2209625;59;2329;-69
2022/02/17 15:44:36;;;;;;;;;;;;;;;;;;2210215;59;1226;-69
2022/02/17 15:47:10;;;;;;;;;;;;;;;;;;2210078;59;1610;-69
2022/02/17 15:49:43;;;;;;;;;;;;;;;;;;2210007;59;1655;-69
2022/02/17 15:52:19;;;;;;;;;;;;;;;;;;2210724;59;1358;-69
2022/02/17 15:54:52;;;;;;;;;;;;;;;;;;2210231;59;1169;-69
2022/02/17 15:57:26;;;;;;;;;;;;;;;;;;2207410;59;1735;-69
2022/02/17 15:59:59;;;;;;;;;;;;;;;;;;2209738;59;2119;-70
2022/02/17 16:02:32;;;;;;;;;;;;;;;;;;2209540;67;1931;-69
2022/02/17 16:05:05;;;;;;;;;;;;;;;;;;2209839;59;1647;-70
2022/02/17 16:07:42;;;;;;;;;;;;;;;;;;2210364;67;1084;-69
2022/02/17 16:10:15;;;;;;;;;;;;;;;;;;2209780;59;1467;-70
2022/02/17 16:12:49;;;;;;;;;;;;;;;;;;2210203;59;1446;-69
2022/02/17 16:15:22;;;;;;;;;;;;;;;;;;2209517;59;1789;-69
2022/02/17 16:17:55;;;;;;;;;;;;;;;;;;2210383;59;1186;-69
2022/02/17 16:20:28;;;;;;;;;;;;;;;;;;2209767;59;1439;-70
2022/02/17 16:23:04;;;;;;;;;;;;;;;;;;2210361;59;1931;-69
2022/02/17 16:25:38;;;;;;;;;;;;;;;;;;2208092;67;1168;-70
2022/02/17 16:28:12;;;;;;;;;;;;;;;;;;2210369;59;1160;-69
2022/02/17 16:30:46;;;;;;;;;;;;;;;;;;2209433;53;3795;-74
2022/02/17 16:33:22;;;;;;;;;;;;;;;;;;2209004;59;1159;-74
2022/02/17 16:35:58;;;;;;;;;;;;;;;;;;2210143;59;1091;-74
2022/02/17 16:38:34;;;;;;;;;;;;;;;;;;2210243;59;1626;-74
2022/02/17 16:41:09;;;;;;;;;;;;;;;;;;2205385;59;2716;-74
2022/02/17 16:43:42;;;;;;;;;;;;;;;;;;2203461;59;2317;-74
2022/02/17 16:46:18;;;;;;;;;;;;;;;;;;2205917;59;1468;-74
2022/02/17 16:48:52;;;;;;;;;;;;;;;;;;2206075;59;1571;-74
2022/02/17 16:51:27;;;;;;;;;;;;;;;;;;2205500;59;1768;-73
2022/02/17 16:54:03;;;;;;;;;;;;;;;;;;2205300;59;1792;-73
2022/02/17 16:56:36;;;;;;;;;;;;;;;;;;2200714;59;3036;-74
2022/02/17 16:59:10;;;;;;;;;;;;;;;;;;2203900;59;2517;-74
2022/02/17 17:01:44;;;;;;;;;;;;;;;;;;2206101;59;1937;-73
2022/02/17 17:04:17;;;;;;;;;;;;;;;;;;2205134;59;1885;-73
2022/02/17 17:06:51;;;;;;;;;;;;;;;;;;2204762;59;1528;-74
2022/02/17 17:09:27;;;;;;;;;;;;;;;;;;2206152;59;2554;-74
2022/02/17 17:12:00;;;;;;;;;;;;;;;;;;2205776;59;1851;-74
2022/02/17 17:14:33;;;;;;;;;;;;;;;;;;2206055;67;2329;-74
2022/02/17 17:17:07;;;;;;;;;;;;;;;;;;2204593;59;2396;-74
2022/02/17 17:19:40;;;;;;;;;;;;;;;;;;2205229;59;1794;-74
2022/02/17 17:22:13;;;;;;;;;;;;;;;;;;2204094;59;2636;-73
2022/02/17 17:24:50;;;;;;;;;;;;;;;;;;2206708;59;1918;-74
2022/02/17 17:27:23;;;;;;;;;;;;;;;;;;2208405;67;1129;-74
2022/02/17 17:29:56;;;;;;;;;;;;;;;;;;2205631;59;1921;-73
2022/02/17 17:32:30;;;;;;;;;;;;;;;;;;2206379;59;1792;-74
2022/02/17 17:35:04;;;;;;;;;;;;;;;;;;2205475;59;1975;-75
2022/02/17 17:37:37;;;;;;;;;;;;;;;;;;2206300;59;1721;-74
2022/02/17 17:40:14;;;;;;;;;;;;;;;;;;2206341;59;1888;-74
2022/02/17 17:42:47;;;;;;;;;;;;;;;;;;2205440;59;2857;-74
2022/02/17 17:45:36;;;;;;;;;;;;;;;;;;2204946;59;1812;-74
2022/02/17 17:48:11;;;;;;;;;;;;;;;;;;2206723;59;1556;-73
2022/02/17 17:50:47;;;;;;;;;;;;;;;;;;2205294;59;1877;-74
2022/02/17 17:53:20;;;;;;;;;;;;;;;;;;2206991;67;1833;-73
2022/02/17 17:55:58;;;;;;;;;;;;;;;;;;2206233;67;1989;-74
2022/02/17 17:58:31;;;;;;;;;;;;;;;;;;2207280;59;1104;-74
2022/02/17 18:01:07;;;;;;;;;;;;;;;;;;2203644;59;2809;-74